Time;durP1;ratioP1;P1;durP2;ratioP2;P2;SDS_P1;SDS_P2;PMS_P1;PMS_P2;Temp;Humidity;BMP_temperature;BMP_pressure;BME280_temperature;BME280_humidity;BME280_pressure;Samples;Min_cycle;Max_cycle;Signal;HPM_P1;HPM_P2
2022/08/19 12:26:23;;;;;;;13.77;5.38;;;23.80;70.70;;;;;;6143680;22;1330542;-71
2022/08/19 12:28:49;;;;;;;16.95;5.20;;;23.80;70.60;;;;;;6218084;23;20024;-75
2022/08/19 12:31:16;;;;;;;19.83;5.15;;;23.80;70.70;;;;;;6218731;23;20012;-73
2022/08/19 12:33:42;;;;;;;19.83;6.28;;;23.80;71.00;;;;;;6219225;23;20333;-75
2022/08/19 12:36:11;;;;;;;21.95;5.18;;;23.80;71.00;;;;;;6218870;23;20013;-72
2022/08/19 12:38:41;;;;;;;17.00;5.35;;;23.80;71.60;;;;;;6216636;23;20020;-84
2022/08/19 12:41:10;;;;;;;18.88;5.90;;;23.80;71.00;;;;;;6216669;23;20300;-74
2022/08/19 12:43:37;;;;;;;15.65;6.13;;;23.80;71.10;;;;;;6218446;23;20298;-73
2022/08/19 12:46:06;;;;;;;21.63;6.70;;;23.90;70.90;;;;;;6217756;23;20417;-74
2022/08/19 12:48:33;;;;;;;11.10;5.35;;;23.90;71.00;;;;;;6218192;23;20421;-72
2022/08/19 12:50:59;;;;;;;18.15;5.50;;;23.90;71.10;;;;;;6218182;23;20038;-73
2022/08/19 12:53:25;;;;;;;12.60;6.10;;;23.90;71.10;;;;;;6218370;23;20100;-74
2022/08/19 12:55:59;;;;;;;13.85;4.60;;;23.90;71.10;;;;;;6218174;23;20044;-76
2022/08/19 12:58:26;;;;;;;10.57;5.80;;;23.90;71.30;;;;;;6218683;23;20028;-80
2022/08/19 13:00:52;;;;;;;16.85;5.13;;;23.90;71.50;;;;;;6218727;23;20024;-76
2022/08/19 13:03:18;;;;;;;11.50;4.70;;;23.90;71.70;;;;;;6218213;23;20028;-75
2022/08/19 13:05:44;;;;;;;11.00;4.25;;;23.80;71.60;;;;;;6217525;23;20056;-74
2022/08/19 13:08:11;;;;;;;9.55;4.28;;;23.90;71.80;;;;;;6217292;23;20055;-75
2022/08/19 13:10:38;;;;;;;15.63;5.78;;;23.90;71.70;;;;;;6217815;23;20059;-73
2022/08/19 13:13:07;;;;;;;9.95;5.38;;;23.90;71.70;;;;;;6218429;23;20024;-75
2022/08/19 13:15:39;;;;;;;10.45;4.85;;;23.90;71.30;;;;;;6217998;23;20504;-74
2022/08/19 13:18:06;;;;;;;14.05;5.43;;;23.90;71.40;;;;;;6218501;23;20399;-74
2022/08/19 13:20:32;;;;;;;11.82;5.10;;;23.90;71.00;;;;;;6218660;23;20170;-76
2022/08/19 13:22:58;;;;;;;11.57;5.35;;;23.90;71.00;;;;;;6218608;23;20020;-72
2022/08/19 13:25:27;;;;;;;18.85;6.00;;;23.90;71.10;;;;;;6218020;23;20031;-75
2022/08/19 13:27:55;;;;;;;9.80;5.82;;;23.90;70.40;;;;;;6217432;23;20099;-75
2022/08/19 13:33:11;;;;;;;8.95;6.13;;;24.00;68.60;;;;;;6218134;23;20024;-72
2022/08/19 13:35:40;;;;;;;7.65;5.95;;;24.00;69.50;;;;;;6218302;23;20024;-71
2022/08/19 13:38:06;;;;;;;9.10;6.13;;;24.00;69.10;;;;;;6218238;23;20156;-73
2022/08/19 13:40:33;;;;;;;9.80;7.03;;;24.00;68.80;;;;;;6218169;23;20021;-71
2022/08/19 13:43:01;;;;;;;9.30;5.10;;;24.00;68.60;;;;;;6218844;23;20044;-71
2022/08/19 13:45:28;;;;;;;6.28;4.82;;;24.00;69.00;;;;;;6218811;23;20017;-71
2022/08/19 13:47:56;;;;;;;8.90;5.25;;;24.00;69.80;;;;;;6217857;23;20441;-71
2022/08/19 13:50:28;;;;;;;9.77;6.50;;;24.00;70.00;;;;;;6218055;23;20016;-73
2022/08/19 13:52:55;;;;;;;8.25;6.38;;;24.00;70.00;;;;;;6218124;23;20028;-71
2022/08/19 13:55:22;;;;;;;7.72;5.97;;;24.00;69.80;;;;;;6219524;23;20024;-71
2022/08/19 13:57:58;;;;;;;7.55;5.57;;;24.00;69.30;;;;;;6218173;23;20021;-73
2022/08/19 14:00:26;;;;;;;6.78;4.90;;;24.00;69.10;;;;;;6219021;23;20084;-75
2022/08/19 14:02:54;;;;;;;6.70;5.25;;;24.00;69.00;;;;;;6217195;23;20054;-76
2022/08/19 14:05:20;;;;;;;8.15;4.72;;;24.00;69.00;;;;;;6218728;23;20020;-78
2022/08/19 14:07:47;;;;;;;6.57;4.78;;;24.00;69.10;;;;;;6218157;23;20051;-74
2022/08/19 14:10:14;;;;;;;8.77;4.30;;;24.00;68.30;;;;;;6218855;23;20017;-73
2022/08/19 14:12:40;;;;;;;5.97;4.05;;;24.00;68.30;;;;;;6218586;23;20016;-74
2022/08/19 14:15:08;;;;;;;7.20;4.70;;;24.00;68.70;;;;;;6217914;23;20027;-74
2022/08/19 17:21:28;;;;;;;7.13;2.60;;;24.20;71.70;;;;;;6164758;23;20064;-79
2022/08/19 17:23:58;;;;;;;3.92;2.00;;;24.20;71.60;;;;;;6188007;23;20455;-72
2022/08/19 17:26:25;;;;;;;5.70;2.20;;;24.20;71.50;;;;;;6188864;23;20036;-74
2022/08/19 17:28:52;;;;;;;2.92;2.10;;;24.20;71.50;;;;;;6188370;23;20021;-75
2022/08/19 19:09:23;;;;;;;6.50;3.15;;;23.60;72.10;;;;;;6148544;23;20077;-71
2022/08/19 19:11:53;;;;;;;7.65;4.97;;;23.60;72.00;;;;;;6189754;23;20099;-72
2022/08/19 19:14:40;;;;;;;9.38;6.00;;;23.60;72.00;;;;;;6187770;23;20013;-72
2022/08/19 19:17:12;;;;;;;11.55;8.70;;;23.60;71.90;;;;;;6187679;23;20032;-73
2022/08/19 19:19:41;;;;;;;6.15;4.90;;;23.60;71.90;;;;;;6188408;23;20092;-73
2022/08/19 19:22:13;;;;;;;5.38;4.32;;;23.60;72.70;;;;;;6187716;23;20087;-71
2022/08/19 19:24:43;;;;;;;5.65;4.20;;;23.50;72.00;;;;;;6187573;23;20017;-72
2022/08/19 19:27:11;;;;;;;5.57;3.90;;;23.50;72.20;;;;;;6187678;23;20021;-72
2022/08/19 19:29:37;;;;;;;7.35;3.88;;;23.40;72.30;;;;;;6187633;23;20068;-72
2022/08/19 19:32:15;;;;;;;5.85;3.40;;;23.40;72.70;;;;;;6187371;23;20096;-72
2022/08/19 19:34:41;;;;;;;2.72;2.40;;;23.40;73.00;;;;;;6186678;23;20013;-76
2022/08/19 19:37:07;;;;;;;12.95;3.85;;;23.40;73.00;;;;;;6186731;23;20278;-74
2022/08/19 19:39:33;;;;;;;8.05;3.55;;;23.40;73.30;;;;;;6187634;23;20032;-73
2022/08/19 19:41:58;;;;;;;7.40;3.05;;;23.40;73.50;;;;;;6187518;23;20056;-72
2022/08/19 19:44:24;;;;;;;7.18;2.85;;;23.40;73.70;;;;;;6187433;23;20020;-74
2022/08/19 19:46:50;;;;;;;7.20;2.58;;;23.50;73.90;;;;;;6187415;23;20028;-77
2022/08/19 19:49:16;;;;;;;5.10;2.72;;;23.50;74.10;;;;;;6187523;23;20017;-74
2022/08/19 19:51:42;;;;;;;5.57;2.70;;;23.50;74.10;;;;;;6187985;23;20017;-73
2022/08/19 19:54:12;;;;;;;6.13;2.65;;;23.60;74.30;;;;;;6188221;23;20013;-71
2022/08/19 19:56:44;;;;;;;7.15;2.72;;;23.60;74.30;;;;;;6188304;23;20021;-73
2022/08/19 19:59:09;;;;;;;4.45;2.50;;;23.60;74.50;;;;;;6189193;23;20079;-73
2022/08/19 20:01:35;;;;;;;6.15;2.50;;;23.60;74.70;;;;;;6189515;23;20075;-72
2022/08/19 20:04:01;;;;;;;4.70;2.40;;;23.60;74.60;;;;;;6189954;23;20410;-72
2022/08/19 20:06:28;;;;;;;9.45;2.83;;;23.60;74.50;;;;;;6189501;23;20103;-72
2022/08/19 20:09:06;;;;;;;5.80;2.38;;;23.70;74.80;;;;;;6189354;23;20052;-73
2022/08/19 20:11:36;;;;;;;6.78;2.72;;;23.70;74.80;;;;;;6189320;23;20096;-74
2022/08/19 20:14:27;;;;;;;4.95;2.22;;;23.70;74.70;;;;;;6189748;23;20361;-72
2022/08/19 20:16:54;;;;;;;5.47;2.17;;;23.70;74.60;;;;;;6188995;23;20421;-78
2022/08/19 20:19:26;;;;;;;4.90;2.00;;;23.70;74.80;;;;;;6188961;23;20092;-79
2022/08/19 20:21:53;;;;;;;6.32;1.95;;;23.70;74.80;;;;;;6186406;23;20025;-77
2022/08/19 20:24:24;;;;;;;3.25;2.20;;;23.70;74.80;;;;;;6189084;23;20013;-77
2022/08/19 20:26:51;;;;;;;6.40;2.15;;;23.70;74.80;;;;;;6189754;23;20287;-79
2022/08/19 20:29:18;;;;;;;2.90;1.70;;;23.80;74.80;;;;;;6189115;23;20021;-78
2022/08/19 20:31:46;;;;;;;7.13;2.05;;;23.80;74.70;;;;;;6188797;23;20414;-77
2022/08/19 20:34:13;;;;;;;7.78;2.38;;;23.80;74.70;;;;;;6188932;23;20027;-79
2022/08/19 20:36:39;;;;;;;6.28;1.90;;;23.80;74.60;;;;;;6188280;23;20017;-82
2022/08/19 20:39:06;;;;;;;6.28;2.30;;;23.80;74.60;;;;;;6187994;23;20087;-82
2022/08/19 20:41:31;;;;;;;7.10;2.15;;;23.80;74.50;;;;;;6188954;23;20021;-81
2022/08/19 20:44:00;;;;;;;4.90;2.08;;;23.80;74.50;;;;;;6187378;23;20024;-74
2022/08/19 20:46:29;;;;;;;3.85;1.80;;;23.70;74.50;;;;;;6188526;23;20504;-75
